sensor_id;sensor_type;location;lat;lon;timestamp;P1;durP1;ratioP1;P2;durP2;ratioP2
34302;SDS011;20785;50.020;19.916;2022-12-19T00:03:45;71.62;;;28.15;;
34302;SDS011;20785;50.020;19.916;2022-12-19T00:09:43;73.60;;;29.37;;
34302;SDS011;20785;50.020;19.916;2022-12-19T00:15:43;65.65;;;24.80;;
34302;SDS011;20785;50.020;19.916;2022-12-19T00:21:44;75.15;;;26.27;;
34302;SDS011;20785;50.020;19.916;2022-12-19T00:27:45;75.52;;;26.97;;
34302;SDS011;20785;50.020;19.916;2022-12-19T00:33:46;80.80;;;28.90;;
34302;SDS011;20785;50.020;19.916;2022-12-19T00:39:48;74.50;;;27.50;;
34302;SDS011;20785;50.020;19.916;2022-12-19T00:45:48;77.75;;;27.85;;
34302;SDS011;20785;50.020;19.916;2022-12-19T00:51:49;75.55;;;27.30;;
34302;SDS011;20785;50.020;19.916;2022-12-19T00:57:50;83.67;;;28.17;;
34302;SDS011;20785;50.020;19.916;2022-12-19T01:03:52;76.22;;;26.55;;
34302;SDS011;20785;50.020;19.916;2022-12-19T01:09:53;73.02;;;25.37;;
34302;SDS011;20785;50.020;19.916;2022-12-19T01:15:54;77.12;;;27.40;;
34302;SDS011;20785;50.020;19.916;2022-12-19T01:21:56;72.47;;;26.80;;
34302;SDS011;20785;50.020;19.916;2022-12-19T01:27:57;65.75;;;23.30;;
34302;SDS011;20785;50.020;19.916;2022-12-19T01:33:59;66.82;;;24.92;;
34302;SDS011;20785;50.020;19.916;2022-12-19T01:40:00;70.37;;;26.33;;
34302;SDS011;20785;50.020;19.916;2022-12-19T01:46:04;66.92;;;25.48;;
34302;SDS011;20785;50.020;19.916;2022-12-19T01:52:06;74.37;;;28.23;;
34302;SDS011;20785;50.020;19.916;2022-12-19T01:58:07;64.95;;;24.40;;
34302;SDS011;20785;50.020;19.916;2022-12-19T02:04:09;71.92;;;26.40;;
34302;SDS011;20785;50.020;19.916;2022-12-19T02:10:11;77.17;;;28.57;;
34302;SDS011;20785;50.020;19.916;2022-12-19T02:34:44;73.07;;;27.95;;
34302;SDS011;20785;50.020;19.916;2022-12-19T02:40:52;68.28;;;24.60;;
34302;SDS011;20785;50.020;19.916;2022-12-19T02:46:53;68.02;;;26.55;;
34302;SDS011;20785;50.020;19.916;2022-12-19T02:52:56;74.70;;;25.30;;
34302;SDS011;20785;50.020;19.916;2022-12-19T02:59:04;67.97;;;26.05;;
34302;SDS011;20785;50.020;19.916;2022-12-19T03:05:07;67.25;;;24.15;;
34302;SDS011;20785;50.020;19.916;2022-12-19T03:11:07;68.05;;;25.55;;
34302;SDS011;20785;50.020;19.916;2022-12-19T03:17:10;65.60;;;23.57;;
34302;SDS011;20785;50.020;19.916;2022-12-19T03:23:11;61.77;;;21.17;;
34302;SDS011;20785;50.020;19.916;2022-12-19T03:29:14;58.58;;;24.27;;
34302;SDS011;20785;50.020;19.916;2022-12-19T03:35:16;71.67;;;24.02;;
34302;SDS011;20785;50.020;19.916;2022-12-19T03:41:18;64.58;;;24.07;;
34302;SDS011;20785;50.020;19.916;2022-12-19T03:47:36;65.65;;;24.70;;
34302;SDS011;20785;50.020;19.916;2022-12-19T03:53:44;61.90;;;21.77;;
34302;SDS011;20785;50.020;19.916;2022-12-19T03:59:50;67.03;;;24.60;;
34302;SDS011;20785;50.020;19.916;2022-12-19T04:05:51;64.97;;;24.43;;
34302;SDS011;20785;50.020;19.916;2022-12-19T04:11:54;62.15;;;22.75;;
34302;SDS011;20785;50.020;19.916;2022-12-19T04:17:56;60.48;;;21.70;;
34302;SDS011;20785;50.020;19.916;2022-12-19T04:24:02;62.78;;;22.82;;
34302;SDS011;20785;50.020;19.916;2022-12-19T04:30:04;57.55;;;22.25;;
34302;SDS011;20785;50.020;19.916;2022-12-19T04:36:08;50.23;;;19.82;;
34302;SDS011;20785;50.020;19.916;2022-12-19T04:42:09;57.78;;;20.30;;
34302;SDS011;20785;50.020;19.916;2022-12-19T04:48:10;53.23;;;20.43;;
34302;SDS011;20785;50.020;19.916;2022-12-19T04:54:11;63.17;;;21.77;;
34302;SDS011;20785;50.020;19.916;2022-12-19T05:00:12;54.63;;;20.45;;
34302;SDS011;20785;50.020;19.916;2022-12-19T05:06:16;60.40;;;21.15;;
34302;SDS011;20785;50.020;19.916;2022-12-19T05:12:17;58.95;;;20.37;;
34302;SDS011;20785;50.020;19.916;2022-12-19T05:18:18;61.20;;;23.02;;
34302;SDS011;20785;50.020;19.916;2022-12-19T05:24:19;59.95;;;21.12;;
34302;SDS011;20785;50.020;19.916;2022-12-19T05:30:20;63.00;;;22.70;;
34302;SDS011;20785;50.020;19.916;2022-12-19T05:36:23;64.97;;;22.35;;
34302;SDS011;20785;50.020;19.916;2022-12-19T05:42:24;62.05;;;21.17;;
34302;SDS011;20785;50.020;19.916;2022-12-19T05:48:39;67.65;;;23.07;;
34302;SDS011;20785;50.020;19.916;2022-12-19T05:54:35;63.65;;;23.02;;
34302;SDS011;20785;50.020;19.916;2022-12-19T06:00:36;67.65;;;23.07;;
34302;SDS011;20785;50.020;19.916;2022-12-19T06:06:37;59.60;;;20.23;;
34302;SDS011;20785;50.020;19.916;2022-12-19T06:12:38;59.63;;;20.35;;
34302;SDS011;20785;50.020;19.916;2022-12-19T06:18:42;56.42;;;20.88;;
34302;SDS011;20785;50.020;19.916;2022-12-19T06:24:43;55.23;;;19.30;;
34302;SDS011;20785;50.020;19.916;2022-12-19T06:30:44;52.17;;;18.45;;
34302;SDS011;20785;50.020;19.916;2022-12-19T06:36:45;54.67;;;21.05;;
34302;SDS011;20785;50.020;19.916;2022-12-19T06:42:46;63.85;;;22.07;;
34302;SDS011;20785;50.020;19.916;2022-12-19T06:48:47;59.15;;;20.77;;
34302;SDS011;20785;50.020;19.916;2022-12-19T06:54:47;52.43;;;20.10;;
34302;SDS011;20785;50.020;19.916;2022-12-19T07:00:48;59.08;;;21.17;;
34302;SDS011;20785;50.020;19.916;2022-12-19T07:06:53;56.60;;;19.90;;
34302;SDS011;20785;50.020;19.916;2022-12-19T07:12:53;59.53;;;21.82;;
34302;SDS011;20785;50.020;19.916;2022-12-19T07:18:54;55.58;;;18.73;;
34302;SDS011;20785;50.020;19.916;2022-12-19T07:24:55;61.48;;;19.30;;
34302;SDS011;20785;50.020;19.916;2022-12-19T07:30:56;62.43;;;21.33;;
34302;SDS011;20785;50.020;19.916;2022-12-19T07:36:57;57.17;;;19.07;;
34302;SDS011;20785;50.020;19.916;2022-12-19T07:42:59;61.50;;;21.02;;
34302;SDS011;20785;50.020;19.916;2022-12-19T07:49:00;58.10;;;21.17;;
34302;SDS011;20785;50.020;19.916;2022-12-19T07:55:01;67.45;;;23.40;;
34302;SDS011;20785;50.020;19.916;2022-12-19T08:01:02;60.50;;;21.73;;
34302;SDS011;20785;50.020;19.916;2022-12-19T08:07:03;59.65;;;21.37;;
34302;SDS011;20785;50.020;19.916;2022-12-19T08:13:04;57.90;;;21.23;;
34302;SDS011;20785;50.020;19.916;2022-12-19T08:19:05;66.82;;;23.45;;
34302;SDS011;20785;50.020;19.916;2022-12-19T08:25:06;61.65;;;22.13;;
34302;SDS011;20785;50.020;19.916;2022-12-19T08:37:19;55.15;;;20.65;;
34302;SDS011;20785;50.020;19.916;2022-12-19T08:43:20;60.15;;;22.13;;
34302;SDS011;20785;50.020;19.916;2022-12-19T08:49:21;61.28;;;22.48;;
34302;SDS011;20785;50.020;19.916;2022-12-19T08:55:22;68.87;;;26.48;;
34302;SDS011;20785;50.020;19.916;2022-12-19T09:01:22;67.20;;;25.25;;
34302;SDS011;20785;50.020;19.916;2022-12-19T09:07:25;73.57;;;24.85;;
34302;SDS011;20785;50.020;19.916;2022-12-19T09:13:26;70.25;;;25.20;;
34302;SDS011;20785;50.020;19.916;2022-12-19T09:19:27;78.17;;;27.15;;
34302;SDS011;20785;50.020;19.916;2022-12-19T09:25:28;67.25;;;24.37;;
34302;SDS011;20785;50.020;19.916;2022-12-19T09:31:29;73.37;;;24.75;;
34302;SDS011;20785;50.020;19.916;2022-12-19T09:37:30;64.85;;;23.25;;
34302;SDS011;20785;50.020;19.916;2022-12-19T09:43:38;69.60;;;24.50;;
34302;SDS011;20785;50.020;19.916;2022-12-19T09:49:37;67.32;;;23.62;;
34302;SDS011;20785;50.020;19.916;2022-12-19T09:55:39;51.15;;;21.17;;
34302;SDS011;20785;50.020;19.916;2022-12-19T10:01:49;60.12;;;23.25;;
34302;SDS011;20785;50.020;19.916;2022-12-19T10:07:50;61.98;;;23.55;;
34302;SDS011;20785;50.020;19.916;2022-12-19T10:13:58;61.48;;;21.93;;
34302;SDS011;20785;50.020;19.916;2022-12-19T10:33:14;65.20;;;23.30;;
34302;SDS011;20785;50.020;19.916;2022-12-19T10:44:25;61.58;;;23.85;;
34302;SDS011;20785;50.020;19.916;2022-12-19T10:50:30;65.47;;;24.85;;
34302;SDS011;20785;50.020;19.916;2022-12-19T10:56:31;68.72;;;26.07;;
34302;SDS011;20785;50.020;19.916;2022-12-19T11:02:40;63.65;;;24.92;;
34302;SDS011;20785;50.020;19.916;2022-12-19T11:08:42;63.58;;;24.90;;
34302;SDS011;20785;50.020;19.916;2022-12-19T11:14:45;67.70;;;26.45;;
34302;SDS011;20785;50.020;19.916;2022-12-19T11:20:56;63.92;;;26.10;;
34302;SDS011;20785;50.020;19.916;2022-12-19T11:26:59;71.75;;;25.52;;
34302;SDS011;20785;50.020;19.916;2022-12-19T11:33:08;69.53;;;26.20;;
34302;SDS011;20785;50.020;19.916;2022-12-19T11:39:15;63.40;;;26.20;;
34302;SDS011;20785;50.020;19.916;2022-12-19T11:51:30;59.03;;;23.52;;
34302;SDS011;20785;50.020;19.916;2022-12-19T11:57:30;68.55;;;27.70;;
34302;SDS011;20785;50.020;19.916;2022-12-19T12:28:09;71.95;;;28.52;;
34302;SDS011;20785;50.020;19.916;2022-12-19T12:34:15;73.52;;;27.95;;
34302;SDS011;20785;50.020;19.916;2022-12-19T12:46:22;63.87;;;24.55;;
34302;SDS011;20785;50.020;19.916;2022-12-19T12:52:41;74.95;;;27.10;;
34302;SDS011;20785;50.020;19.916;2022-12-19T13:04:58;68.35;;;27.17;;
34302;SDS011;20785;50.020;19.916;2022-12-19T13:11:01;70.10;;;26.90;;
34302;SDS011;20785;50.020;19.916;2022-12-19T13:17:03;69.05;;;24.65;;
34302;SDS011;20785;50.020;19.916;2022-12-19T13:23:07;69.10;;;26.68;;
34302;SDS011;20785;50.020;19.916;2022-12-19T13:41:29;70.40;;;25.88;;
34302;SDS011;20785;50.020;19.916;2022-12-19T13:47:50;63.73;;;25.90;;
34302;SDS011;20785;50.020;19.916;2022-12-19T13:53:55;66.42;;;27.87;;
34302;SDS011;20785;50.020;19.916;2022-12-19T13:59:58;80.38;;;29.00;;
34302;SDS011;20785;50.020;19.916;2022-12-19T14:06:02;72.72;;;27.95;;
34302;SDS011;20785;50.020;19.916;2022-12-19T14:12:03;63.95;;;24.30;;
34302;SDS011;20785;50.020;19.916;2022-12-19T14:18:12;74.45;;;29.48;;
34302;SDS011;20785;50.020;19.916;2022-12-19T14:24:19;76.17;;;29.27;;
34302;SDS011;20785;50.020;19.916;2022-12-19T14:30:27;75.22;;;28.83;;
34302;SDS011;20785;50.020;19.916;2022-12-19T14:36:28;67.92;;;27.95;;
34302;SDS011;20785;50.020;19.916;2022-12-19T14:42:34;70.92;;;28.35;;
34302;SDS011;20785;50.020;19.916;2022-12-19T14:48:58;78.83;;;28.85;;
34302;SDS011;20785;50.020;19.916;2022-12-19T15:01:24;71.22;;;27.40;;
34302;SDS011;20785;50.020;19.916;2022-12-19T15:07:28;71.92;;;26.70;;
34302;SDS011;20785;50.020;19.916;2022-12-19T15:13:28;77.58;;;29.95;;
34302;SDS011;20785;50.020;19.916;2022-12-19T15:19:29;75.40;;;28.17;;
34302;SDS011;20785;50.020;19.916;2022-12-19T15:25:30;83.17;;;30.00;;
34302;SDS011;20785;50.020;19.916;2022-12-19T15:31:32;74.82;;;29.05;;
34302;SDS011;20785;50.020;19.916;2022-12-19T15:37:34;80.32;;;29.98;;
34302;SDS011;20785;50.020;19.916;2022-12-19T15:43:34;86.25;;;32.05;;
34302;SDS011;20785;50.020;19.916;2022-12-19T15:49:35;86.40;;;32.93;;
34302;SDS011;20785;50.020;19.916;2022-12-19T15:55:36;79.92;;;31.57;;
34302;SDS011;20785;50.020;19.916;2022-12-19T16:01:40;79.85;;;29.10;;
34302;SDS011;20785;50.020;19.916;2022-12-19T16:07:40;74.53;;;29.67;;
34302;SDS011;20785;50.020;19.916;2022-12-19T16:13:41;74.15;;;29.07;;
34302;SDS011;20785;50.020;19.916;2022-12-19T16:19:44;84.50;;;32.83;;
34302;SDS011;20785;50.020;19.916;2022-12-19T16:25:46;79.32;;;29.07;;
34302;SDS011;20785;50.020;19.916;2022-12-19T16:31:47;85.42;;;30.85;;
34302;SDS011;20785;50.020;19.916;2022-12-19T16:37:49;77.95;;;30.10;;
34302;SDS011;20785;50.020;19.916;2022-12-19T16:43:49;84.50;;;31.42;;
34302;SDS011;20785;50.020;19.916;2022-12-19T16:49:51;80.57;;;30.85;;
34302;SDS011;20785;50.020;19.916;2022-12-19T16:55:52;76.20;;;29.95;;
34302;SDS011;20785;50.020;19.916;2022-12-19T17:01:53;84.22;;;32.67;;
34302;SDS011;20785;50.020;19.916;2022-12-19T17:07:55;82.17;;;31.27;;
34302;SDS011;20785;50.020;19.916;2022-12-19T17:14:00;86.65;;;32.23;;
34302;SDS011;20785;50.020;19.916;2022-12-19T17:20:00;83.93;;;31.90;;
34302;SDS011;20785;50.020;19.916;2022-12-19T17:26:01;82.53;;;30.43;;
34302;SDS011;20785;50.020;19.916;2022-12-19T17:32:02;77.58;;;29.02;;
34302;SDS011;20785;50.020;19.916;2022-12-19T17:38:08;85.70;;;31.33;;
34302;SDS011;20785;50.020;19.916;2022-12-19T17:44:09;80.50;;;30.57;;
34302;SDS011;20785;50.020;19.916;2022-12-19T17:50:22;78.15;;;29.80;;
34302;SDS011;20785;50.020;19.916;2022-12-19T17:56:14;77.12;;;29.92;;
34302;SDS011;20785;50.020;19.916;2022-12-19T18:02:17;79.22;;;30.92;;
34302;SDS011;20785;50.020;19.916;2022-12-19T18:08:23;77.55;;;28.52;;
34302;SDS011;20785;50.020;19.916;2022-12-19T18:14:24;75.25;;;29.82;;
34302;SDS011;20785;50.020;19.916;2022-12-19T18:20:27;77.55;;;30.23;;
34302;SDS011;20785;50.020;19.916;2022-12-19T18:26:28;85.97;;;32.53;;
34302;SDS011;20785;50.020;19.916;2022-12-19T18:32:28;88.37;;;32.88;;
34302;SDS011;20785;50.020;19.916;2022-12-19T18:38:29;87.02;;;33.85;;
34302;SDS011;20785;50.020;19.916;2022-12-19T18:44:30;88.30;;;33.48;;
34302;SDS011;20785;50.020;19.916;2022-12-19T18:50:31;91.12;;;34.50;;
34302;SDS011;20785;50.020;19.916;2022-12-19T18:56:32;79.92;;;31.87;;
34302;SDS011;20785;50.020;19.916;2022-12-19T19:02:33;79.25;;;32.63;;
34302;SDS011;20785;50.020;19.916;2022-12-19T19:08:34;87.53;;;32.55;;
34302;SDS011;20785;50.020;19.916;2022-12-19T19:14:37;82.05;;;32.83;;
34302;SDS011;20785;50.020;19.916;2022-12-19T19:20:39;86.92;;;32.33;;
34302;SDS011;20785;50.020;19.916;2022-12-19T19:26:40;88.00;;;33.30;;
34302;SDS011;20785;50.020;19.916;2022-12-19T19:32:48;82.30;;;33.73;;
34302;SDS011;20785;50.020;19.916;2022-12-19T19:38:50;92.95;;;34.35;;
34302;SDS011;20785;50.020;19.916;2022-12-19T19:44:51;87.95;;;33.38;;
34302;SDS011;20785;50.020;19.916;2022-12-19T19:50:52;84.77;;;34.33;;
34302;SDS011;20785;50.020;19.916;2022-12-19T19:56:53;90.87;;;36.13;;
34302;SDS011;20785;50.020;19.916;2022-12-19T20:02:54;94.28;;;34.98;;
34302;SDS011;20785;50.020;19.916;2022-12-19T20:08:57;93.05;;;36.25;;
34302;SDS011;20785;50.020;19.916;2022-12-19T20:14:58;91.53;;;36.60;;
34302;SDS011;20785;50.020;19.916;2022-12-19T20:20:59;97.42;;;37.67;;
34302;SDS011;20785;50.020;19.916;2022-12-19T20:27:00;94.92;;;38.05;;
34302;SDS011;20785;50.020;19.916;2022-12-19T20:33:01;101.65;;;40.10;;
34302;SDS011;20785;50.020;19.916;2022-12-19T20:39:02;104.38;;;40.88;;
34302;SDS011;20785;50.020;19.916;2022-12-19T20:45:05;104.90;;;41.28;;
34302;SDS011;20785;50.020;19.916;2022-12-19T20:51:06;105.47;;;40.73;;
34302;SDS011;20785;50.020;19.916;2022-12-19T20:57:07;111.42;;;44.98;;
34302;SDS011;20785;50.020;19.916;2022-12-19T21:03:08;111.28;;;44.60;;
34302;SDS011;20785;50.020;19.916;2022-12-19T21:09:09;110.50;;;42.30;;
34302;SDS011;20785;50.020;19.916;2022-12-19T21:15:12;114.95;;;44.42;;
34302;SDS011;20785;50.020;19.916;2022-12-19T21:21:19;101.55;;;40.75;;
34302;SDS011;20785;50.020;19.916;2022-12-19T21:27:16;92.40;;;39.30;;
34302;SDS011;20785;50.020;19.916;2022-12-19T21:33:17;102.65;;;40.78;;
34302;SDS011;20785;50.020;19.916;2022-12-19T21:39:18;99.50;;;40.00;;
34302;SDS011;20785;50.020;19.916;2022-12-19T21:45:20;98.22;;;41.20;;
34302;SDS011;20785;50.020;19.916;2022-12-19T21:51:22;96.05;;;38.28;;
34302;SDS011;20785;50.020;19.916;2022-12-19T21:57:24;93.10;;;38.63;;
34302;SDS011;20785;50.020;19.916;2022-12-19T22:03:26;100.38;;;40.80;;
34302;SDS011;20785;50.020;19.916;2022-12-19T22:09:27;101.82;;;40.12;;
34302;SDS011;20785;50.020;19.916;2022-12-19T22:15:28;95.45;;;40.12;;
34302;SDS011;20785;50.020;19.916;2022-12-19T22:21:29;103.55;;;41.68;;
34302;SDS011;20785;50.020;19.916;2022-12-19T22:27:30;102.10;;;41.00;;
34302;SDS011;20785;50.020;19.916;2022-12-19T22:33:31;100.25;;;42.10;;
34302;SDS011;20785;50.020;19.916;2022-12-19T22:39:33;92.70;;;40.28;;
34302;SDS011;20785;50.020;19.916;2022-12-19T22:45:34;95.05;;;40.30;;
34302;SDS011;20785;50.020;19.916;2022-12-19T22:51:35;100.22;;;40.63;;
34302;SDS011;20785;50.020;19.916;2022-12-19T22:57:36;92.22;;;40.43;;
34302;SDS011;20785;50.020;19.916;2022-12-19T23:03:37;102.05;;;41.98;;
34302;SDS011;20785;50.020;19.916;2022-12-19T23:09:38;96.60;;;40.43;;
34302;SDS011;20785;50.020;19.916;2022-12-19T23:15:42;88.05;;;37.30;;
34302;SDS011;20785;50.020;19.916;2022-12-19T23:21:43;99.17;;;40.00;;
34302;SDS011;20785;50.020;19.916;2022-12-19T23:27:44;94.10;;;39.25;;
34302;SDS011;20785;50.020;19.916;2022-12-19T23:33:46;94.95;;;40.63;;
34302;SDS011;20785;50.020;19.916;2022-12-19T23:39:47;97.90;;;38.92;;
34302;SDS011;20785;50.020;19.916;2022-12-19T23:45:48;96.67;;;39.58;;
34302;SDS011;20785;50.020;19.916;2022-12-19T23:51:49;99.13;;;41.73;;
34302;SDS011;20785;50.020;19.916;2022-12-19T23:57:49;97.05;;;41.50;;
